createdAt,value
2023-03-19T00:00:30.864Z,28.50
2023-03-19T00:03:18.412Z,27.73
2023-03-19T00:05:54.925Z,26.05
2023-03-19T00:08:22.942Z,26.67
2023-03-19T00:10:51.075Z,26.88
2023-03-19T00:13:19.765Z,24.48
2023-03-19T00:15:50.459Z,28.70
2023-03-19T00:18:18.055Z,24.52
2023-03-19T00:20:45.909Z,26.52
2023-03-19T00:23:13.473Z,23.23
2023-03-19T00:25:40.866Z,30.17
2023-03-19T00:28:08.420Z,26.05
2023-03-19T00:30:36.495Z,25.27
2023-03-19T00:33:04.241Z,27.42
2023-03-19T00:35:31.599Z,25.02
2023-03-19T00:37:59.224Z,29.45
2023-03-19T00:40:27.418Z,24.75
2023-03-19T00:42:55.019Z,27.17
2023-03-19T00:45:22.258Z,24.80
2023-03-19T00:47:49.821Z,29.52
2023-03-19T00:50:17.310Z,23.30
2023-03-19T00:52:44.802Z,25.30
2023-03-19T00:55:11.989Z,27.80
2023-03-19T00:57:39.660Z,26.98
2023-03-19T01:00:08.761Z,25.67
2023-03-19T01:02:37.080Z,26.45
2023-03-19T01:05:04.580Z,24.58
2023-03-19T01:07:33.081Z,27.38
2023-03-19T01:10:00.344Z,25.05
2023-03-19T01:12:28.467Z,25.13
2023-03-19T01:14:55.763Z,30.60
2023-03-19T01:17:23.513Z,26.35
2023-03-19T01:19:50.999Z,27.83
2023-03-19T01:22:18.744Z,23.17
2023-03-19T01:24:53.041Z,29.40
2023-03-19T01:27:21.345Z,26.80
2023-03-19T01:29:50.934Z,31.67
2023-03-19T01:32:28.379Z,26.75
2023-03-19T01:35:14.004Z,26.83
2023-03-19T01:37:41.767Z,30.42
2023-03-19T01:40:13.357Z,26.45
2023-03-19T01:42:57.751Z,29.25
2023-03-19T01:45:44.966Z,27.58
2023-03-19T01:48:44.872Z,27.95
2023-03-19T01:51:17.825Z,27.10
2023-03-19T01:54:02.748Z,27.85
2023-03-19T01:56:39.804Z,29.60
2023-03-19T02:02:29.465Z,26.98
2023-03-19T02:05:09.553Z,27.02
2023-03-19T02:07:39.899Z,27.63
2023-03-19T02:10:11.936Z,29.50
2023-03-19T02:15:07.378Z,26.60
2023-03-19T02:17:34.989Z,26.95
2023-03-19T02:20:08.890Z,30.77
2023-03-19T02:22:40.207Z,30.38
2023-03-19T02:25:17.314Z,30.50
2023-03-19T02:27:46.922Z,29.30
2023-03-19T02:30:21.457Z,26.10
2023-03-19T02:32:49.158Z,29.08
2023-03-19T02:35:16.924Z,30.45
2023-03-19T02:37:44.271Z,26.75
2023-03-19T02:40:19.603Z,29.35
2023-03-19T02:42:46.885Z,28.75
2023-03-19T02:45:15.038Z,27.77
2023-03-19T02:47:42.279Z,27.90
2023-03-19T02:50:10.577Z,29.50
2023-03-19T02:52:37.817Z,28.90
2023-03-19T02:55:06.561Z,28.10
2023-03-19T02:57:35.482Z,27.13
2023-03-19T03:00:05.156Z,28.80
2023-03-19T03:02:32.683Z,29.27
2023-03-19T03:05:00.502Z,29.58
2023-03-19T03:07:27.710Z,30.17
2023-03-19T03:09:55.256Z,27.35
2023-03-19T03:12:22.754Z,28.98
2023-03-19T03:14:50.298Z,25.98
2023-03-19T03:17:19.295Z,28.05
2023-03-19T03:19:47.828Z,28.10
2023-03-19T03:22:15.161Z,28.45
2023-03-19T03:24:42.694Z,31.50
2023-03-19T03:27:10.088Z,26.70
2023-03-19T03:29:38.127Z,29.02
2023-03-19T03:32:07.261Z,27.45
2023-03-19T03:34:34.958Z,30.55
2023-03-19T03:37:02.154Z,32.03
2023-03-19T03:39:29.802Z,29.88
2023-03-19T03:41:57.136Z,29.63
2023-03-19T03:44:24.957Z,31.00
2023-03-19T03:46:52.545Z,31.30
2023-03-19T03:49:20.180Z,28.38
2023-03-19T03:51:47.632Z,32.90
2023-03-19T03:54:15.513Z,29.40
2023-03-19T03:56:42.714Z,32.13
2023-03-19T03:59:10.321Z,30.65
2023-03-19T04:01:37.574Z,33.38
2023-03-19T04:04:05.450Z,31.10
2023-03-19T04:06:32.864Z,31.20
2023-03-19T04:09:19.657Z,27.95
2023-03-19T04:11:49.781Z,30.83
2023-03-19T04:14:18.904Z,28.88
2023-03-19T04:16:46.757Z,30.73
2023-03-19T04:19:14.530Z,32.05
2023-03-19T04:21:41.856Z,31.73
2023-03-19T04:24:10.631Z,32.83
2023-03-19T04:26:38.465Z,29.58
2023-03-19T04:29:08.574Z,29.50
2023-03-19T04:31:36.177Z,29.67
2023-03-19T04:34:03.909Z,33.72
2023-03-19T04:36:31.322Z,29.95
2023-03-19T04:38:58.943Z,35.92
2023-03-19T04:41:27.187Z,29.63
2023-03-19T04:44:06.022Z,33.92
2023-03-19T04:46:34.243Z,34.55
2023-03-19T04:49:02.961Z,35.00
2023-03-19T04:51:30.900Z,31.52
2023-03-19T04:53:58.949Z,32.22
2023-03-19T04:56:27.818Z,36.10
2023-03-19T04:58:56.053Z,33.40
2023-03-19T05:01:23.878Z,35.47
2023-03-19T05:04:04.173Z,35.53
2023-03-19T05:06:34.190Z,36.30
2023-03-19T05:09:02.548Z,31.42
2023-03-19T05:11:29.850Z,31.35
2023-03-19T05:14:05.615Z,34.25
2023-03-19T05:17:08.708Z,37.10
2023-03-19T05:19:48.758Z,29.10
2023-03-19T05:22:17.282Z,30.77
2023-03-19T05:24:45.589Z,37.67
2023-03-19T05:27:13.413Z,28.67
2023-03-19T05:30:05.786Z,32.53
2023-03-19T05:33:00.037Z,28.70
2023-03-19T05:35:34.803Z,29.33
2023-03-19T05:38:03.980Z,29.95
2023-03-19T05:40:32.861Z,30.77
2023-03-19T05:43:05.833Z,29.75
2023-03-19T05:45:33.659Z,29.73
2023-03-19T05:48:09.157Z,36.25
2023-03-19T05:50:42.623Z,32.95
2023-03-19T05:53:20.465Z,32.28
2023-03-19T05:56:08.489Z,28.65
2023-03-19T05:58:45.801Z,29.73
2023-03-19T06:01:16.313Z,29.73
2023-03-19T06:03:44.525Z,28.42
2023-03-19T06:06:12.411Z,32.25
2023-03-19T06:08:43.698Z,25.10
2023-03-19T06:11:21.932Z,27.48
2023-03-19T06:13:58.688Z,28.95
2023-03-19T06:16:27.233Z,28.17
2023-03-19T06:18:55.281Z,30.38
2023-03-19T06:21:29.694Z,28.52
2023-03-19T06:24:00.174Z,26.67
2023-03-19T06:26:33.873Z,34.58
2023-03-19T06:29:05.009Z,26.55
2023-03-19T06:31:33.060Z,32.00
2023-03-19T06:34:03.273Z,26.40
2023-03-19T06:36:39.350Z,28.90
2023-03-19T06:39:09.391Z,26.65
2023-03-19T06:41:37.416Z,30.90
2023-03-19T06:44:17.507Z,30.25
2023-03-19T06:46:45.200Z,30.30
2023-03-19T06:49:12.458Z,24.63
2023-03-19T06:51:40.080Z,26.17
2023-03-19T06:54:07.320Z,26.13
2023-03-19T06:56:34.845Z,27.80
2023-03-19T06:59:02.360Z,26.23
2023-03-19T07:01:29.936Z,27.05
2023-03-19T07:03:57.511Z,29.40
2023-03-19T07:06:25.096Z,28.35
2023-03-19T07:08:52.336Z,27.15
2023-03-19T07:11:19.849Z,25.95
2023-03-19T07:13:47.183Z,22.20
2023-03-19T07:16:14.923Z,23.65
2023-03-19T07:18:42.171Z,28.30
2023-03-19T07:21:09.691Z,24.58
2023-03-19T07:23:36.916Z,28.65
2023-03-19T07:26:04.621Z,26.60
2023-03-19T07:28:31.875Z,24.55
2023-03-19T07:30:59.429Z,27.60
2023-03-19T07:33:26.679Z,27.80
2023-03-19T07:35:54.367Z,30.00
2023-03-19T07:38:21.772Z,24.83
2023-03-19T07:41:01.432Z,25.25
2023-03-19T07:43:29.399Z,22.65
2023-03-19T07:45:57.217Z,21.40
2023-03-19T07:48:24.597Z,25.20
2023-03-19T07:50:52.389Z,21.63
2023-03-19T07:53:20.091Z,25.45
2023-03-19T07:55:48.568Z,21.92
2023-03-19T07:58:16.918Z,20.10
2023-03-19T08:00:45.265Z,20.85
2023-03-19T08:03:12.699Z,19.00
2023-03-19T08:05:40.261Z,21.70
2023-03-19T08:08:08.026Z,17.88
2023-03-19T08:10:37.900Z,18.13
2023-03-19T08:13:05.525Z,17.98
2023-03-19T08:15:33.239Z,18.25
2023-03-19T08:18:02.111Z,18.95
2023-03-19T08:20:30.092Z,18.35
2023-03-19T08:22:58.108Z,19.50
2023-03-19T08:25:26.202Z,14.52
2023-03-19T08:27:53.448Z,14.77
2023-03-19T08:30:21.142Z,18.42
2023-03-19T08:32:49.445Z,17.35
2023-03-19T08:35:17.517Z,17.48
2023-03-19T08:37:44.896Z,18.85
2023-03-19T08:40:12.927Z,16.48
2023-03-19T08:42:44.373Z,16.70
2023-03-19T08:45:15.049Z,16.83
2023-03-19T08:47:43.649Z,17.67
2023-03-19T08:50:12.241Z,15.95
2023-03-19T08:52:39.477Z,19.50
2023-03-19T08:55:08.511Z,20.40
2023-03-19T08:57:36.744Z,20.10
2023-03-19T09:00:05.861Z,17.20
2023-03-19T09:02:33.172Z,22.25
2023-03-19T09:05:01.007Z,21.02
2023-03-19T09:07:28.270Z,19.25
2023-03-19T09:09:55.830Z,22.58
2023-03-19T09:12:23.225Z,20.35
2023-03-19T09:14:51.869Z,21.77
2023-03-19T09:17:19.115Z,19.08
2023-03-19T09:19:46.633Z,17.25
2023-03-19T09:22:13.856Z,17.05
2023-03-19T09:24:41.596Z,17.50
2023-03-19T09:27:08.904Z,17.05
2023-03-19T09:29:36.637Z,18.17
2023-03-19T09:32:04.466Z,18.83
2023-03-19T09:34:32.011Z,19.02
2023-03-19T09:36:59.304Z,20.38
2023-03-19T09:39:26.852Z,23.98
2023-03-19T09:42:28.032Z,21.92
2023-03-19T09:44:55.909Z,24.08
2023-03-19T09:47:29.644Z,20.67
2023-03-19T09:50:04.212Z,25.02
2023-03-19T09:52:54.844Z,27.35
2023-03-19T09:55:34.546Z,25.33
2023-03-19T09:58:02.740Z,27.75
2023-03-19T10:00:34.589Z,29.73
2023-03-19T10:03:14.685Z,27.70
2023-03-19T10:06:06.917Z,27.60
2023-03-19T10:08:38.684Z,32.35
2023-03-19T10:11:15.474Z,30.23
2023-03-19T10:14:29.703Z,30.27
2023-03-19T10:17:00.190Z,29.50
2023-03-19T10:19:56.842Z,28.75
2023-03-19T10:22:33.554Z,27.98
2023-03-19T10:25:02.875Z,31.88
2023-03-19T10:27:30.392Z,29.88
2023-03-19T10:29:57.688Z,24.60
2023-03-19T10:32:41.565Z,25.90
2023-03-19T10:35:19.775Z,22.33
2023-03-19T10:37:50.134Z,26.05
2023-03-19T10:40:26.588Z,20.88
2023-03-19T10:43:06.244Z,24.85
2023-03-19T10:45:38.486Z,19.58
2023-03-19T10:48:12.222Z,18.77
2023-03-19T10:51:06.222Z,20.25
2023-03-19T10:53:37.618Z,22.23
2023-03-19T10:56:08.027Z,20.02
2023-03-19T10:58:37.064Z,17.77
2023-03-19T11:01:11.199Z,19.65
2023-03-19T11:04:00.589Z,19.60
2023-03-19T11:06:36.170Z,20.85
2023-03-19T11:09:19.837Z,20.35
2023-03-19T11:11:53.710Z,18.20
2023-03-19T11:14:26.321Z,21.60
2023-03-19T11:17:06.488Z,22.70
2023-03-19T11:19:41.442Z,20.10
2023-03-19T11:22:23.049Z,18.83
2023-03-19T11:24:56.455Z,16.85
2023-03-19T11:27:29.771Z,19.05
2023-03-19T11:29:57.731Z,19.85
2023-03-19T11:32:37.352Z,21.92
2023-03-19T11:35:16.124Z,22.15
2023-03-19T11:37:56.759Z,21.30
2023-03-19T11:40:32.018Z,21.30
2023-03-19T11:43:29.248Z,20.67
2023-03-19T11:46:02.916Z,18.40
2023-03-19T11:48:45.416Z,18.85
2023-03-19T11:51:20.699Z,18.05
2023-03-19T11:54:38.835Z,17.48
2023-03-19T11:57:24.535Z,20.65
2023-03-19T12:00:19.151Z,17.30
2023-03-19T12:03:19.123Z,16.70
2023-03-19T12:06:01.299Z,17.95
2023-03-19T12:08:34.035Z,18.75
2023-03-19T12:11:32.495Z,18.42
2023-03-19T12:14:16.373Z,19.30
2023-03-19T12:17:04.387Z,18.92
2023-03-19T12:20:14.863Z,16.98
2023-03-19T12:23:06.718Z,18.30
2023-03-19T12:25:37.262Z,19.67
2023-03-19T12:28:29.253Z,15.45
2023-03-19T12:31:42.460Z,18.50
2023-03-19T12:34:24.906Z,18.05
2023-03-19T12:37:07.957Z,18.50
2023-03-19T12:39:38.840Z,17.73
2023-03-19T12:42:13.496Z,16.08
2023-03-19T12:44:46.679Z,18.92
2023-03-19T12:47:19.533Z,20.83
2023-03-19T12:50:01.482Z,20.48
2023-03-19T12:52:49.608Z,17.55
2023-03-19T12:55:36.459Z,15.18
2023-03-19T12:58:14.417Z,15.70
2023-03-19T13:01:02.669Z,17.70
2023-03-19T13:03:39.095Z,16.48
2023-03-19T13:06:32.271Z,16.17
2023-03-19T13:08:59.804Z,15.88
2023-03-19T13:11:45.734Z,15.65
2023-03-19T13:14:22.552Z,17.58
2023-03-19T13:17:06.777Z,15.00
2023-03-19T13:19:40.797Z,15.10
2023-03-19T13:22:13.104Z,15.57
2023-03-19T13:24:44.696Z,14.82
2023-03-19T13:27:22.840Z,11.75
2023-03-19T13:30:19.415Z,17.75
2023-03-19T13:33:05.095Z,12.90
2023-03-19T13:35:38.082Z,14.80
2023-03-19T13:38:15.445Z,15.85
2023-03-19T13:40:54.476Z,17.38
2023-03-19T13:43:30.896Z,19.10
2023-03-19T13:46:04.885Z,15.77
2023-03-19T13:48:32.136Z,16.70
2023-03-19T13:51:06.438Z,15.48
2023-03-19T13:53:54.040Z,16.35
2023-03-19T13:56:29.907Z,17.10
2023-03-19T13:59:15.790Z,17.00
2023-03-19T14:01:45.066Z,15.80
2023-03-19T14:04:32.428Z,15.02
2023-03-19T14:07:17.414Z,15.70
2023-03-19T14:10:07.743Z,17.88
2023-03-19T14:12:37.946Z,15.57
2023-03-19T14:15:11.255Z,16.60
2023-03-19T14:17:53.981Z,16.83
2023-03-19T14:20:53.253Z,17.27
2023-03-19T14:23:38.391Z,13.40
2023-03-19T14:26:15.906Z,17.23
2023-03-19T14:29:02.596Z,18.13
2023-03-19T14:31:39.165Z,17.95
2023-03-19T14:34:22.098Z,18.75
2023-03-19T14:36:52.498Z,19.02
2023-03-19T14:39:29.296Z,22.90
2023-03-19T14:42:08.688Z,23.90
2023-03-19T14:44:54.934Z,17.67
2023-03-19T14:47:49.862Z,19.08
2023-03-19T14:50:29.894Z,18.35
2023-03-19T14:53:11.242Z,17.23
2023-03-19T14:55:38.871Z,22.60
2023-03-19T14:58:06.264Z,24.23
2023-03-19T15:00:55.602Z,30.70
2023-03-19T15:03:34.939Z,36.58
2023-03-19T15:06:05.587Z,33.40
2023-03-19T15:08:36.472Z,45.00
2023-03-19T15:11:33.916Z,35.25
2023-03-19T15:14:13.969Z,35.08
2023-03-19T15:16:55.144Z,36.03
2023-03-19T15:19:29.822Z,35.90
2023-03-19T15:22:14.912Z,33.25
2023-03-19T15:24:43.076Z,38.03
2023-03-19T15:27:25.921Z,39.17
2023-03-19T15:30:02.072Z,37.00
2023-03-19T15:33:08.971Z,36.80
2023-03-19T15:35:32.076Z,38.30
2023-03-19T15:38:02.888Z,42.72
2023-03-19T15:40:32.770Z,43.42
2023-03-19T15:43:02.799Z,36.65
2023-03-19T15:45:33.940Z,39.47
2023-03-19T15:48:09.526Z,38.22
2023-03-19T15:50:43.783Z,40.90
2023-03-19T15:53:17.224Z,45.15
2023-03-19T15:55:44.777Z,44.47
2023-03-19T15:58:19.122Z,42.05
2023-03-19T16:00:47.068Z,43.75
2023-03-19T16:03:20.344Z,43.08
2023-03-19T16:05:52.680Z,44.28
2023-03-19T16:08:25.459Z,40.92
2023-03-19T16:10:53.419Z,41.90
2023-03-19T16:13:27.304Z,39.40
2023-03-19T16:16:02.925Z,41.33
2023-03-19T16:18:42.064Z,43.53
2023-03-19T16:21:15.188Z,44.85
2023-03-19T16:23:46.612Z,38.92
2023-03-19T16:26:26.421Z,43.60
2023-03-19T16:29:03.214Z,47.28
2023-03-19T16:31:36.485Z,47.67
2023-03-19T16:34:04.096Z,45.10
2023-03-19T16:36:33.636Z,44.58
2023-03-19T16:39:30.672Z,43.47
2023-03-19T16:42:28.729Z,43.00
2023-03-19T16:44:56.709Z,41.85
2023-03-19T16:47:23.989Z,45.05
2023-03-19T16:49:51.705Z,43.85
2023-03-19T16:52:22.527Z,42.35
2023-03-19T16:54:51.892Z,45.92
2023-03-19T16:57:19.816Z,42.70
2023-03-19T16:59:48.234Z,42.10
2023-03-19T17:02:17.365Z,42.90
2023-03-19T17:04:46.008Z,41.83
2023-03-19T17:07:13.716Z,40.85
2023-03-19T17:09:41.236Z,42.15
2023-03-19T17:12:15.560Z,44.28
2023-03-19T17:14:43.526Z,42.78
2023-03-19T17:17:19.562Z,43.22
2023-03-19T17:19:47.371Z,44.03
2023-03-19T17:22:14.644Z,42.05
2023-03-19T17:24:42.495Z,43.13
2023-03-19T17:27:09.864Z,45.90
2023-03-19T17:29:37.377Z,45.53
2023-03-19T17:32:07.154Z,45.38
2023-03-19T17:34:36.939Z,48.63
2023-03-19T17:37:10.845Z,49.50
2023-03-19T17:39:38.512Z,46.70
2023-03-19T17:42:24.303Z,47.92
2023-03-19T17:44:52.254Z,47.47
2023-03-19T17:47:20.200Z,45.47
2023-03-19T17:49:48.063Z,46.78
2023-03-19T17:52:19.100Z,47.00
2023-03-19T17:54:46.712Z,44.53
2023-03-19T17:57:15.314Z,47.85
2023-03-19T17:59:42.934Z,44.15
2023-03-19T18:02:22.091Z,44.65
2023-03-19T18:04:52.390Z,47.22
2023-03-19T18:07:20.018Z,57.03
2023-03-19T18:09:47.544Z,50.50
2023-03-19T18:12:15.300Z,48.70
2023-03-19T18:14:42.802Z,51.53
2023-03-19T18:17:17.044Z,50.50
2023-03-19T18:19:47.477Z,52.85
2023-03-19T18:22:19.230Z,53.92
2023-03-19T18:24:46.930Z,57.88
2023-03-19T18:27:14.761Z,54.35
2023-03-19T18:29:42.359Z,49.95
2023-03-19T18:32:16.837Z,53.15
2023-03-19T18:34:44.500Z,63.83
2023-03-19T18:37:17.292Z,47.80
2023-03-19T18:39:45.076Z,52.35
2023-03-19T18:42:13.644Z,54.15
2023-03-19T18:44:41.295Z,56.38
2023-03-19T18:47:14.975Z,53.00
2023-03-19T18:49:43.580Z,58.08
2023-03-19T18:52:16.426Z,61.25
2023-03-19T18:54:46.096Z,62.35
2023-03-19T18:57:14.419Z,53.78
2023-03-19T18:59:42.419Z,61.42
2023-03-19T19:02:28.669Z,61.58
2023-03-19T19:04:56.322Z,65.63
2023-03-19T19:07:23.589Z,55.80
2023-03-19T19:09:51.221Z,59.88
2023-03-19T19:12:19.583Z,58.58
2023-03-19T19:14:47.184Z,56.45
2023-03-19T19:17:21.262Z,59.35
2023-03-19T19:19:48.804Z,54.58
2023-03-19T19:22:18.478Z,57.90
2023-03-19T19:24:46.536Z,64.80
2023-03-19T19:27:20.730Z,59.15
2023-03-19T19:29:49.373Z,62.13
2023-03-19T19:32:24.871Z,55.05
2023-03-19T19:34:53.233Z,56.60
2023-03-19T19:37:23.288Z,59.58
2023-03-19T19:39:51.768Z,56.85
2023-03-19T19:42:21.256Z,60.22
2023-03-19T19:44:55.418Z,57.15
2023-03-19T19:47:22.796Z,59.47
2023-03-19T19:49:50.583Z,53.08
2023-03-19T19:52:19.642Z,51.90
2023-03-19T19:54:47.739Z,53.88
2023-03-19T19:57:27.077Z,59.95
2023-03-19T19:59:55.684Z,63.60
2023-03-19T20:02:28.982Z,59.42
2023-03-19T20:04:57.972Z,58.08
2023-03-19T20:07:25.780Z,61.60
2023-03-19T20:09:53.386Z,61.10
2023-03-19T20:12:22.318Z,56.38
2023-03-19T20:14:51.211Z,61.50
2023-03-19T20:17:21.130Z,71.13
2023-03-19T20:19:48.900Z,64.95
2023-03-19T20:22:16.619Z,61.03
2023-03-19T20:24:45.117Z,61.35
2023-03-19T20:27:19.096Z,57.67
2023-03-19T20:29:46.941Z,58.10
2023-03-19T20:32:38.456Z,55.72
2023-03-19T20:35:16.721Z,58.78
2023-03-19T20:37:44.190Z,54.70
2023-03-19T20:40:13.236Z,54.15
2023-03-19T20:42:41.511Z,60.88
2023-03-19T20:45:16.153Z,59.35
2023-03-19T20:47:43.502Z,62.67
2023-03-19T20:50:38.256Z,57.70
2023-03-19T20:53:05.857Z,65.93
2023-03-19T20:55:36.285Z,65.00
2023-03-19T20:58:14.421Z,66.80
2023-03-19T21:00:42.244Z,63.95
2023-03-19T21:03:16.907Z,67.10
2023-03-19T21:05:45.252Z,63.15
2023-03-19T21:08:16.422Z,65.90
2023-03-19T21:10:45.085Z,68.07
2023-03-19T21:13:15.661Z,63.55
2023-03-19T21:15:44.959Z,61.30
2023-03-19T21:18:13.157Z,59.05
2023-03-19T21:20:43.001Z,59.33
2023-03-19T21:23:28.374Z,66.47
2023-03-19T21:25:56.209Z,62.75
2023-03-19T21:28:30.635Z,63.40
2023-03-19T21:30:58.437Z,66.93
2023-03-19T21:33:28.893Z,69.00
2023-03-19T21:35:57.549Z,68.78
2023-03-19T21:38:25.470Z,78.28
2023-03-19T21:40:58.074Z,70.43
2023-03-19T21:43:43.846Z,75.88
2023-03-19T21:46:24.036Z,71.93
2023-03-19T21:48:54.503Z,77.55
2023-03-19T21:51:23.667Z,78.05
2023-03-19T21:53:50.995Z,77.05
2023-03-19T21:56:33.581Z,72.97
2023-03-19T21:59:03.705Z,73.35
2023-03-19T22:01:31.381Z,73.93
2023-03-19T22:03:58.733Z,69.03
2023-03-19T22:06:26.269Z,74.55
2023-03-19T22:08:54.278Z,77.10
2023-03-19T22:11:28.701Z,75.13
2023-03-19T22:14:22.757Z,71.93
2023-03-19T22:16:54.088Z,80.22
2023-03-19T22:19:22.026Z,73.32
2023-03-19T22:21:49.721Z,74.68
2023-03-19T22:24:17.022Z,80.03
2023-03-19T22:26:46.829Z,79.00
2023-03-19T22:29:18.398Z,73.85
2023-03-19T22:34:17.306Z,76.22
2023-03-19T22:36:45.092Z,76.78
2023-03-19T22:39:12.814Z,75.57
2023-03-19T22:41:46.203Z,73.43
2023-03-19T22:44:26.674Z,64.28
2023-03-19T22:46:56.292Z,72.80
2023-03-19T22:49:24.872Z,72.25
2023-03-19T22:51:52.586Z,71.65
2023-03-19T22:54:19.856Z,71.35
2023-03-19T22:56:47.406Z,72.90
2023-03-19T22:59:14.663Z,75.13
2023-03-19T23:01:47.424Z,69.25
2023-03-19T23:04:22.484Z,71.93
2023-03-19T23:06:51.872Z,70.43
2023-03-19T23:09:24.850Z,68.85
2023-03-19T23:11:53.769Z,69.75
2023-03-19T23:14:29.657Z,73.28
2023-03-19T23:17:06.693Z,84.32
2023-03-19T23:19:36.708Z,76.93
2023-03-19T23:22:06.742Z,80.20
2023-03-19T23:24:34.377Z,89.03
2023-03-19T23:27:03.130Z,92.70
2023-03-19T23:29:34.466Z,83.68
2023-03-19T23:32:03.447Z,81.40
2023-03-19T23:34:31.530Z,76.38
2023-03-19T23:37:00.943Z,80.32
2023-03-19T23:39:28.927Z,83.03
2023-03-19T23:41:59.145Z,78.97
2023-03-19T23:44:29.210Z,77.50
2023-03-19T23:47:01.519Z,79.63
2023-03-19T23:49:33.341Z,78.65
2023-03-19T23:52:02.393Z,75.05
2023-03-19T23:54:34.429Z,71.50
2023-03-19T23:57:06.718Z,78.03
2023-03-19T23:59:38.145Z,75.63
